EDDM/MUC METAR and TAF weather

Enter ICAO airport designator
Station Type Date Time Source
EDDM METAR 2020/04/05 12:20 UTC NOAA

EDDM 051220Z 08012KT 050V110 CAVOK 15/M01 Q1023 NOSIG


Station Type Date Time Source
EDDM Decoded METAR 2020/04/05 12:20 UTC NOAA

Munchen, Germany (EDDM) 48-21N 011-47E
Apr 05, 2020 - 08:20 AM EDT / 2020.04.05 1220 UTC
Wind: from the E (080 degrees) at 14 MPH (12 KT) (direction variable):0
Visibility: greater than 7 mile(s):0
Temperature: 59 F (15 C)
Dew Point: 30 F (-1 C)
Relative Humidity: 33%
Pressure (altimeter): 30.21 in. Hg (1023 hPa)
ob: EDDM 051220Z 08012KT 050V110 CAVOK 15/M01 Q1023 NOSIG
cycle: 12

Station Type Date Time Source
EDDM TAF 2020/04/05 12:27 UTC NOAA

TAF EDDM 051100Z 0512/0618 08012KT CAVOK
BECMG 0516/0518 08005KT
BECMG 0522/0524 VRB02KT
TEMPO 0612/0617 04005KT

Example: see airport list